createdAt,value
2023-02-21T00:00:34.516Z,138.00
2023-02-21T00:01:37.683Z,117.80
2023-02-21T00:02:40.601Z,150.50
2023-02-21T00:04:15.120Z,127.60
2023-02-21T00:05:18.256Z,150.50
2023-02-21T00:06:21.575Z,114.30
2023-02-21T00:07:56.351Z,107.70
2023-02-21T00:08:59.195Z,111.10
2023-02-21T00:10:02.058Z,110.00
2023-02-21T00:11:39.719Z,110.00
2023-02-21T00:12:42.521Z,109.20
2023-02-21T00:13:45.298Z,126.50
2023-02-21T00:15:19.792Z,136.20
2023-02-21T00:16:22.691Z,135.60
2023-02-21T00:17:25.573Z,124.60
2023-02-21T00:19:00.145Z,140.40
2023-02-21T00:20:02.901Z,139.60
2023-02-21T00:21:05.786Z,128.40
2023-02-21T00:22:40.535Z,126.90
2023-02-21T00:23:43.427Z,127.20
2023-02-21T00:24:46.286Z,142.50
2023-02-21T00:26:21.240Z,125.70
2023-02-21T00:27:24.171Z,141.80
2023-02-21T00:28:27.086Z,126.60
2023-02-21T00:30:01.919Z,143.60
2023-02-21T00:31:05.480Z,131.70
2023-02-21T00:32:08.407Z,131.90
2023-02-21T00:33:43.736Z,149.80
2023-02-21T00:34:46.455Z,134.40
2023-02-21T00:35:49.165Z,149.60
2023-02-21T00:37:23.679Z,131.90
2023-02-21T00:38:26.873Z,138.60
2023-02-21T00:39:29.679Z,135.20
2023-02-21T00:41:04.378Z,145.40
2023-02-21T00:42:07.200Z,142.70
2023-02-21T00:43:10.094Z,133.20
2023-02-21T00:44:45.357Z,150.10
2023-02-21T00:45:48.348Z,147.00
2023-02-21T00:46:51.291Z,130.70
2023-02-21T00:48:25.888Z,130.40
2023-02-21T00:49:28.569Z,131.30
2023-02-21T00:50:31.390Z,129.10
2023-02-21T00:52:05.958Z,142.90
2023-02-21T00:53:08.730Z,133.10
2023-02-21T00:54:11.502Z,145.80
2023-02-21T00:55:48.102Z,144.40
2023-02-21T00:56:51.070Z,142.50
2023-02-21T00:57:53.864Z,131.20
2023-02-21T00:59:28.564Z,145.80
2023-02-21T01:00:33.555Z,146.30
2023-02-21T01:01:37.142Z,151.50
2023-02-21T01:02:40.102Z,150.80
2023-02-21T01:04:14.860Z,159.90
2023-02-21T01:05:17.783Z,161.80
2023-02-21T01:06:20.462Z,165.60
2023-02-21T01:07:54.989Z,155.50
2023-02-21T01:08:57.602Z,155.20
2023-02-21T01:10:00.404Z,167.90
2023-02-21T01:11:35.551Z,161.60
2023-02-21T01:12:38.302Z,166.30
2023-02-21T01:13:41.111Z,178.60
2023-02-21T01:15:15.810Z,184.00
2023-02-21T01:16:19.069Z,180.50
2023-02-21T01:17:35.589Z,181.90
2023-02-21T01:19:10.243Z,186.60
2023-02-21T01:20:13.228Z,168.10
2023-02-21T01:21:16.184Z,205.80
2023-02-21T01:22:50.713Z,126.00
2023-02-21T01:23:53.468Z,108.10
2023-02-21T01:24:56.262Z,107.40
2023-02-21T01:26:31.117Z,106.90
2023-02-21T01:27:33.984Z,118.00
2023-02-21T01:28:36.797Z,120.80
2023-02-21T01:30:11.605Z,123.20
2023-02-21T01:31:15.398Z,108.60
2023-02-21T01:32:18.894Z,124.60
2023-02-21T01:33:53.616Z,126.90
2023-02-21T01:34:58.708Z,127.30
2023-02-21T01:36:01.621Z,115.30
2023-02-21T01:37:36.059Z,115.20
2023-02-21T01:38:38.810Z,129.40
2023-02-21T01:39:41.489Z,131.00
2023-02-21T01:41:16.372Z,120.70
2023-02-21T01:42:19.175Z,135.50
2023-02-21T01:43:21.932Z,138.60
2023-02-21T01:44:56.503Z,120.20
2023-02-21T01:45:59.475Z,138.00
2023-02-21T01:47:02.346Z,126.00
2023-02-21T01:48:37.068Z,124.20
2023-02-21T01:49:40.016Z,129.00
2023-02-21T01:50:42.902Z,130.40
2023-02-21T01:52:18.043Z,125.90
2023-02-21T01:53:20.907Z,136.90
2023-02-21T01:54:23.640Z,115.10
2023-02-21T01:55:58.190Z,126.60
2023-02-21T01:57:00.978Z,114.30
2023-02-21T01:58:04.599Z,115.60
2023-02-21T01:59:39.240Z,139.40
2023-02-21T02:00:34.033Z,139.20
2023-02-21T02:01:37.502Z,130.00
2023-02-21T02:02:40.452Z,134.10
2023-02-21T02:04:18.151Z,146.50
2023-02-21T02:05:21.032Z,138.10
2023-02-21T02:06:24.092Z,126.10
2023-02-21T02:07:58.899Z,141.60
2023-02-21T02:09:01.792Z,137.70
2023-02-21T02:10:04.582Z,123.70
2023-02-21T02:11:39.268Z,142.00
2023-02-21T02:12:42.177Z,125.20
2023-02-21T02:13:44.911Z,119.20
2023-02-21T02:15:19.415Z,119.20
2023-02-21T02:16:22.698Z,119.40
2023-02-21T02:17:27.943Z,119.00
2023-02-21T02:19:02.407Z,150.20
2023-02-21T02:20:05.505Z,144.80
2023-02-21T02:21:08.375Z,143.20
2023-02-21T02:22:43.737Z,138.50
2023-02-21T02:23:46.746Z,145.50
2023-02-21T02:24:49.713Z,128.50
2023-02-21T02:26:24.454Z,143.50
2023-02-21T02:27:27.447Z,140.20
2023-02-21T02:28:30.191Z,134.40
2023-02-21T02:30:04.788Z,139.40
2023-02-21T02:31:07.942Z,148.90
2023-02-21T02:32:12.403Z,141.40
2023-02-21T02:33:47.025Z,136.00
2023-02-21T02:34:49.783Z,155.00
2023-02-21T02:35:52.609Z,149.40
2023-02-21T02:37:27.317Z,179.00
2023-02-21T02:38:30.312Z,133.60
2023-02-21T02:39:33.346Z,140.70
2023-02-21T02:41:07.926Z,137.70
2023-02-21T02:42:11.279Z,147.00
2023-02-21T02:43:14.088Z,146.30
2023-02-21T02:44:48.715Z,130.40
2023-02-21T02:45:51.409Z,127.50
2023-02-21T02:46:54.396Z,123.20
2023-02-21T02:48:28.887Z,147.10
2023-02-21T02:49:31.575Z,135.30
2023-02-21T02:50:34.348Z,125.40
2023-02-21T02:52:08.865Z,126.80
2023-02-21T02:53:11.637Z,123.80
2023-02-21T02:54:14.432Z,124.90
2023-02-21T02:55:49.103Z,123.40
2023-02-21T02:56:52.058Z,130.50
2023-02-21T02:57:54.812Z,135.40
2023-02-21T02:59:29.464Z,148.10
2023-02-21T03:00:33.669Z,144.70
2023-02-21T03:01:37.275Z,150.20
2023-02-21T03:02:40.274Z,138.20
2023-02-21T03:04:15.238Z,154.80
2023-02-21T03:05:18.046Z,121.40
2023-02-21T03:06:20.775Z,134.80
2023-02-21T03:07:58.626Z,120.40
2023-02-21T03:09:01.431Z,143.00
2023-02-21T03:10:04.183Z,136.90
2023-02-21T03:11:38.990Z,124.70
2023-02-21T03:12:41.885Z,134.70
2023-02-21T03:13:44.671Z,118.30
2023-02-21T03:15:19.448Z,124.50
2023-02-21T03:16:22.605Z,138.60
2023-02-21T03:17:25.528Z,123.20
2023-02-21T03:19:00.601Z,133.10
2023-02-21T03:20:03.611Z,118.50
2023-02-21T03:21:06.392Z,121.40
2023-02-21T03:22:41.265Z,121.90
2023-02-21T03:23:44.212Z,117.60
2023-02-21T03:24:46.957Z,135.70
2023-02-21T03:26:21.666Z,123.40
2023-02-21T03:27:24.364Z,130.80
2023-02-21T03:28:27.120Z,134.00
2023-02-21T03:30:01.822Z,133.00
2023-02-21T03:31:04.972Z,144.80
2023-02-21T03:32:08.442Z,133.70
2023-02-21T03:33:43.301Z,129.10
2023-02-21T03:34:46.220Z,148.60
2023-02-21T03:35:49.107Z,146.00
2023-02-21T03:37:23.836Z,127.90
2023-02-21T03:38:26.517Z,144.20
2023-02-21T03:39:29.279Z,130.30
2023-02-21T03:41:03.861Z,139.60
2023-02-21T03:42:06.602Z,137.80
2023-02-21T03:43:09.496Z,136.40
2023-02-21T03:44:44.248Z,134.10
2023-02-21T03:45:47.202Z,133.20
2023-02-21T03:46:52.397Z,121.30
2023-02-21T03:48:42.498Z,138.10
2023-02-21T03:49:45.311Z,138.60
2023-02-21T03:50:48.245Z,131.80
2023-02-21T03:52:23.516Z,131.30
2023-02-21T03:53:26.533Z,118.20
2023-02-21T03:54:29.320Z,134.30
2023-02-21T03:56:03.807Z,131.90
2023-02-21T03:57:06.578Z,116.30
2023-02-21T03:58:09.345Z,115.30
2023-02-21T03:59:46.945Z,130.80
2023-02-21T04:00:34.086Z,128.50
2023-02-21T04:01:37.639Z,111.40
2023-02-21T04:02:40.797Z,136.40
2023-02-21T04:04:15.385Z,125.20
2023-02-21T04:05:18.412Z,128.90
2023-02-21T04:06:21.233Z,115.20
2023-02-21T04:07:56.026Z,123.40
2023-02-21T04:08:58.901Z,118.00
2023-02-21T04:10:01.792Z,133.80
2023-02-21T04:11:49.593Z,118.40
2023-02-21T04:12:52.333Z,119.60
2023-02-21T04:13:55.011Z,132.60
2023-02-21T04:15:29.617Z,120.40
2023-02-21T04:16:32.613Z,116.70
2023-02-21T04:17:35.540Z,136.30
2023-02-21T04:19:10.115Z,134.60
2023-02-21T04:20:12.976Z,136.80
2023-02-21T04:21:16.128Z,133.60
2023-02-21T04:23:04.030Z,133.90
2023-02-21T04:24:06.855Z,117.70
2023-02-21T04:25:09.795Z,131.70
2023-02-21T04:26:44.546Z,132.70
2023-02-21T04:27:47.586Z,120.50
2023-02-21T04:28:50.382Z,122.90
2023-02-21T04:30:25.083Z,136.10
2023-02-21T04:31:28.518Z,126.20
2023-02-21T04:32:32.269Z,167.70
2023-02-21T04:34:23.516Z,175.70
2023-02-21T04:35:26.345Z,203.10
2023-02-21T04:36:29.131Z,146.00
2023-02-21T04:38:03.896Z,146.80
2023-02-21T04:39:06.733Z,134.90
2023-02-21T04:40:09.592Z,119.00
2023-02-21T04:41:44.574Z,129.90
2023-02-21T04:42:47.386Z,134.00
2023-02-21T04:43:50.246Z,159.30
2023-02-21T04:45:25.013Z,131.30
2023-02-21T04:46:28.075Z,134.10
2023-02-21T04:47:30.807Z,158.90
2023-02-21T04:49:05.331Z,139.10
2023-02-21T04:50:08.050Z,130.40
2023-02-21T04:51:27.332Z,133.70
2023-02-21T04:53:01.779Z,123.20
2023-02-21T04:54:04.666Z,135.20
2023-02-21T04:55:10.187Z,140.80
2023-02-21T04:56:45.319Z,129.20
2023-02-21T04:57:48.195Z,143.20
2023-02-21T04:59:03.147Z,136.80
2023-02-21T05:00:34.635Z,134.90
2023-02-21T05:01:38.227Z,120.20
2023-02-21T05:02:41.067Z,138.90
2023-02-21T05:04:16.390Z,149.90
2023-02-21T05:06:03.512Z,141.80
2023-02-21T05:07:06.289Z,127.50
2023-02-21T05:08:09.353Z,140.60
2023-02-21T05:09:44.102Z,140.30
2023-02-21T05:11:02.813Z,139.30
2023-02-21T05:12:05.725Z,145.70
2023-02-21T05:13:40.696Z,145.70
2023-02-21T05:14:43.764Z,133.80
2023-02-21T05:15:46.812Z,144.40
2023-02-21T05:17:21.816Z,148.50
2023-02-21T05:18:24.795Z,135.90
2023-02-21T05:19:28.166Z,147.50
2023-02-21T05:21:03.503Z,147.60
2023-02-21T05:22:06.449Z,139.30
2023-02-21T05:23:24.626Z,132.90
2023-02-21T05:24:59.466Z,141.20
2023-02-21T05:26:02.310Z,145.50
2023-02-21T05:27:05.268Z,151.30
2023-02-21T05:28:39.904Z,140.50
2023-02-21T05:29:42.600Z,136.50
2023-02-21T05:30:46.330Z,143.40
2023-02-21T05:32:22.612Z,132.20
2023-02-21T05:33:25.567Z,131.90
2023-02-21T05:34:28.523Z,135.20
2023-02-21T05:36:03.500Z,127.30
2023-02-21T05:37:06.447Z,134.60
2023-02-21T05:38:09.352Z,151.80
2023-02-21T05:39:44.381Z,151.50
2023-02-21T05:40:47.394Z,140.30
2023-02-21T05:41:50.176Z,151.20
2023-02-21T05:43:26.416Z,158.30
2023-02-21T05:44:30.284Z,147.10
2023-02-21T05:45:33.263Z,169.50
2023-02-21T05:47:08.251Z,130.40
2023-02-21T05:48:11.064Z,139.60
2023-02-21T05:49:14.129Z,125.60
2023-02-21T05:50:48.790Z,123.00
2023-02-21T05:51:51.926Z,134.40
2023-02-21T05:52:54.770Z,129.60
2023-02-21T05:54:29.423Z,132.50
2023-02-21T05:55:32.294Z,115.90
2023-02-21T05:56:35.185Z,131.00
2023-02-21T05:58:10.081Z,124.50
2023-02-21T05:59:13.043Z,130.80
2023-02-21T06:00:35.267Z,132.20
2023-02-21T06:01:38.741Z,136.40
2023-02-21T06:02:41.868Z,128.40
2023-02-21T06:04:16.689Z,132.20
2023-02-21T06:05:19.662Z,131.80
2023-02-21T06:06:22.998Z,119.20
2023-02-21T06:07:57.944Z,131.40
2023-02-21T06:09:00.977Z,130.80
2023-02-21T06:10:03.860Z,116.00
2023-02-21T06:11:39.122Z,129.00
2023-02-21T06:12:42.097Z,131.00
2023-02-21T06:13:45.069Z,116.50
2023-02-21T06:15:19.795Z,113.70
2023-02-21T06:16:23.013Z,116.90
2023-02-21T06:17:25.738Z,116.30
2023-02-21T06:19:00.681Z,113.50
2023-02-21T06:20:03.566Z,130.90
2023-02-21T06:21:06.510Z,123.40
2023-02-21T06:22:41.462Z,115.70
2023-02-21T06:23:44.361Z,128.50
2023-02-21T06:24:47.293Z,115.30
2023-02-21T06:26:21.856Z,117.20
2023-02-21T06:27:24.968Z,132.70
2023-02-21T06:28:27.951Z,131.50
2023-02-21T06:30:02.788Z,132.60
2023-02-21T06:31:06.472Z,137.60
2023-02-21T06:32:09.913Z,120.30
2023-02-21T06:33:45.127Z,155.90
2023-02-21T06:34:47.908Z,231.40
2023-02-21T06:35:50.754Z,139.80
2023-02-21T06:37:25.649Z,128.40
2023-02-21T06:38:28.491Z,124.60
2023-02-21T06:39:31.574Z,109.10
2023-02-21T06:41:06.189Z,109.90
2023-02-21T06:42:09.090Z,123.70
2023-02-21T06:43:11.870Z,109.60
2023-02-21T06:44:46.796Z,121.60
2023-02-21T06:45:49.869Z,119.90
2023-02-21T06:46:52.822Z,119.90
2023-02-21T06:48:27.721Z,103.00
2023-02-21T06:49:30.512Z,102.10
2023-02-21T06:50:33.353Z,116.80
2023-02-21T06:52:08.057Z,116.10
2023-02-21T06:53:10.910Z,101.00
2023-02-21T06:54:13.768Z,116.00
2023-02-21T06:55:48.368Z,115.70
2023-02-21T06:56:51.386Z,114.90
2023-02-21T06:57:54.235Z,100.80
2023-02-21T06:59:28.940Z,114.60
2023-02-21T07:00:33.894Z,115.20
2023-02-21T07:01:37.465Z,99.70
2023-02-21T07:02:40.693Z,101.60
2023-02-21T07:04:15.588Z,100.00
2023-02-21T07:05:18.670Z,100.30
2023-02-21T07:06:21.503Z,99.80
2023-02-21T07:07:58.962Z,101.00
2023-02-21T07:09:01.874Z,118.60
2023-02-21T07:10:04.675Z,118.80
2023-02-21T07:11:39.771Z,117.40
2023-02-21T07:12:42.611Z,118.90
2023-02-21T07:13:45.419Z,101.90
2023-02-21T07:15:20.345Z,100.90
2023-02-21T07:16:23.910Z,120.60
2023-02-21T07:17:26.904Z,117.10
2023-02-21T07:19:01.554Z,104.50
2023-02-21T07:20:04.516Z,120.30
2023-02-21T07:21:07.591Z,120.50
2023-02-21T07:22:42.994Z,105.80
2023-02-21T07:23:45.955Z,122.90
2023-02-21T07:24:49.100Z,121.80
2023-02-21T07:26:23.826Z,119.60
2023-02-21T07:27:26.668Z,119.90
2023-02-21T07:28:29.721Z,121.90
2023-02-21T07:30:04.785Z,108.10
2023-02-21T07:31:08.043Z,120.60
2023-02-21T07:32:13.089Z,107.70
2023-02-21T07:33:48.830Z,106.40
2023-02-21T07:34:51.693Z,122.10
2023-02-21T07:35:54.662Z,119.70
2023-02-21T07:37:29.594Z,122.00
2023-02-21T07:38:32.808Z,122.20
2023-02-21T07:39:35.715Z,119.80
2023-02-21T07:41:10.913Z,108.30
2023-02-21T07:42:13.923Z,107.30
2023-02-21T07:43:16.852Z,123.80
2023-02-21T07:44:51.648Z,107.80
2023-02-21T07:45:54.648Z,105.50
2023-02-21T07:46:57.986Z,123.70
2023-02-21T07:48:32.510Z,137.10
2023-02-21T07:49:35.323Z,136.20
2023-02-21T07:50:38.378Z,138.10
2023-02-21T07:52:13.626Z,125.50
2023-02-21T07:53:16.993Z,133.40
2023-02-21T07:54:19.846Z,139.40
2023-02-21T07:55:54.712Z,119.50
2023-02-21T07:56:57.713Z,134.00
2023-02-21T07:58:00.857Z,118.80
2023-02-21T07:59:35.575Z,125.20
2023-02-21T08:00:34.293Z,123.90
2023-02-21T08:01:38.638Z,136.30
2023-02-21T08:02:41.591Z,122.10
2023-02-21T08:04:16.513Z,125.50
2023-02-21T08:05:19.660Z,127.30
2023-02-21T08:06:22.415Z,129.20
2023-02-21T08:07:57.456Z,128.10
2023-02-21T08:09:00.352Z,142.30
2023-02-21T08:10:03.224Z,145.40
2023-02-21T08:11:38.552Z,131.70
2023-02-21T08:12:41.825Z,135.30
2023-02-21T08:13:44.887Z,131.50
2023-02-21T08:15:19.485Z,132.20
2023-02-21T08:16:23.036Z,128.80
2023-02-21T08:17:26.250Z,132.80
2023-02-21T08:19:00.944Z,143.00
2023-02-21T08:20:03.685Z,143.00
2023-02-21T08:21:06.564Z,143.50
2023-02-21T08:22:43.121Z,129.30
2023-02-21T08:23:46.043Z,146.60
2023-02-21T08:24:49.138Z,131.40
2023-02-21T08:26:23.818Z,129.00
2023-02-21T08:27:26.687Z,134.20
2023-02-21T08:28:29.586Z,146.10
2023-02-21T08:30:04.417Z,129.60
2023-02-21T08:31:07.803Z,140.60
2023-02-21T08:32:11.231Z,140.80
2023-02-21T08:33:48.571Z,135.20
2023-02-21T08:34:51.596Z,131.20
2023-02-21T08:35:54.452Z,141.70
2023-02-21T08:37:29.145Z,125.40
2023-02-21T08:38:32.009Z,129.50
2023-02-21T08:39:35.119Z,142.60
2023-02-21T08:41:10.031Z,140.60
2023-02-21T08:42:13.426Z,125.80
2023-02-21T08:43:16.616Z,139.00
2023-02-21T08:44:51.472Z,139.10
2023-02-21T08:45:54.478Z,141.60
2023-02-21T08:47:01.090Z,141.00
2023-02-21T08:48:35.948Z,142.00
2023-02-21T08:49:38.901Z,130.70
2023-02-21T08:50:42.164Z,145.40
2023-02-21T08:52:17.259Z,144.50
2023-02-21T08:53:21.230Z,132.10
2023-02-21T08:54:24.158Z,135.50
2023-02-21T08:55:59.085Z,138.10
2023-02-21T08:57:01.974Z,139.70
2023-02-21T08:58:05.022Z,139.30
2023-02-21T08:59:41.590Z,118.20
2023-02-21T09:00:34.728Z,132.40
2023-02-21T09:01:38.419Z,119.60
2023-02-21T09:02:41.675Z,132.30
2023-02-21T09:04:16.353Z,117.30
2023-02-21T09:05:21.898Z,118.10
2023-02-21T09:06:25.033Z,114.20
2023-02-21T09:07:59.738Z,133.50
2023-02-21T09:09:02.710Z,133.90
2023-02-21T09:10:07.047Z,133.20
2023-02-21T09:11:41.900Z,117.80
2023-02-21T09:12:44.831Z,117.30
2023-02-21T09:13:47.757Z,118.40
2023-02-21T09:15:22.585Z,132.10
2023-02-21T09:16:25.749Z,134.40
2023-02-21T09:17:28.611Z,126.10
2023-02-21T09:19:03.247Z,127.60
2023-02-21T09:20:06.005Z,142.20
2023-02-21T09:21:08.959Z,131.30
2023-02-21T09:22:44.384Z,143.30
2023-02-21T09:23:47.414Z,143.70
2023-02-21T09:24:50.308Z,140.80
2023-02-21T09:26:25.146Z,146.20
2023-02-21T09:27:28.196Z,137.10
2023-02-21T09:28:30.986Z,148.80
2023-02-21T09:30:09.509Z,150.90
2023-02-21T09:31:12.361Z,150.90
2023-02-21T09:32:16.137Z,138.80
2023-02-21T09:33:52.282Z,152.10
2023-02-21T09:34:55.349Z,133.00
2023-02-21T09:35:58.394Z,142.20
2023-02-21T09:37:33.055Z,136.10
2023-02-21T09:38:36.267Z,137.20
2023-02-21T09:39:39.521Z,140.20
2023-02-21T09:41:14.815Z,164.70
2023-02-21T09:42:18.114Z,160.70
2023-02-21T09:43:20.982Z,162.00
2023-02-21T09:44:56.059Z,133.50
2023-02-21T09:46:02.223Z,142.10
2023-02-21T09:47:05.120Z,144.40
2023-02-21T09:48:39.937Z,127.70
2023-02-21T09:49:42.752Z,131.00
2023-02-21T09:50:45.934Z,128.40
2023-02-21T09:52:20.804Z,150.80
2023-02-21T09:53:23.627Z,135.90
2023-02-21T09:54:26.472Z,143.60
2023-02-21T09:56:01.180Z,133.40
2023-02-21T09:57:04.153Z,146.60
2023-02-21T09:58:06.990Z,144.90
2023-02-21T09:59:41.764Z,144.30
2023-02-21T10:00:33.612Z,132.10
2023-02-21T10:01:37.335Z,133.50
2023-02-21T10:02:40.573Z,148.60
2023-02-21T10:04:15.450Z,143.60
2023-02-21T10:05:18.581Z,144.90
2023-02-21T10:06:22.745Z,143.20
2023-02-21T10:07:57.795Z,131.70
2023-02-21T10:09:00.878Z,133.70
2023-02-21T10:10:03.692Z,136.20
2023-02-21T10:11:39.184Z,131.40
2023-02-21T10:12:42.054Z,142.90
2023-02-21T10:13:44.911Z,128.60
2023-02-21T10:15:19.599Z,147.30
2023-02-21T10:16:22.768Z,134.00
2023-02-21T10:17:25.645Z,146.60
2023-02-21T10:19:00.317Z,146.40
2023-02-21T10:20:03.225Z,134.00
2023-02-21T10:21:06.321Z,134.00
2023-02-21T10:22:41.649Z,145.00
2023-02-21T10:23:44.517Z,132.30
2023-02-21T10:24:48.114Z,134.70
2023-02-21T10:26:23.097Z,132.40
2023-02-21T10:27:26.071Z,149.60
2023-02-21T10:28:29.366Z,146.10
2023-02-21T10:30:06.357Z,146.60
2023-02-21T10:31:10.235Z,135.30
2023-02-21T10:32:14.246Z,146.90
2023-02-21T10:33:48.903Z,134.20
2023-02-21T10:34:53.157Z,143.80
2023-02-21T10:35:56.101Z,145.10
2023-02-21T10:37:31.503Z,136.10
2023-02-21T10:38:34.340Z,150.60
2023-02-21T10:39:37.201Z,145.70
2023-02-21T10:41:12.632Z,145.40
2023-02-21T10:42:15.630Z,131.00
2023-02-21T10:43:18.545Z,143.70
2023-02-21T10:44:53.448Z,134.80
2023-02-21T10:45:58.395Z,135.70
2023-02-21T10:47:01.579Z,137.70
2023-02-21T10:48:36.361Z,133.20
2023-02-21T10:49:39.420Z,153.50
2023-02-21T10:50:42.338Z,151.50
2023-02-21T10:52:17.814Z,145.80
2023-02-21T10:53:20.939Z,146.90
2023-02-21T10:54:23.734Z,145.50
2023-02-21T10:55:58.646Z,133.40
2023-02-21T10:57:01.448Z,140.20
2023-02-21T10:58:04.334Z,127.40
2023-02-21T10:59:39.158Z,121.20
2023-02-21T11:00:35.306Z,124.20
2023-02-21T11:01:39.445Z,137.60
2023-02-21T11:02:43.181Z,135.70
2023-02-21T11:04:19.764Z,129.10
2023-02-21T11:05:22.689Z,125.90
2023-02-21T11:06:27.913Z,114.10
2023-02-21T11:08:02.859Z,110.90
2023-02-21T11:09:05.684Z,127.00
2023-02-21T11:10:08.980Z,112.40
2023-02-21T11:11:44.716Z,114.90
2023-02-21T11:12:47.602Z,127.00
2023-02-21T11:13:50.602Z,108.40
2023-02-21T11:15:25.310Z,108.20
2023-02-21T11:16:28.550Z,123.20
2023-02-21T11:17:31.540Z,122.60
2023-02-21T11:19:06.420Z,121.80
2023-02-21T11:20:09.396Z,123.80
2023-02-21T11:21:12.583Z,125.00
2023-02-21T11:22:47.501Z,122.90
2023-02-21T11:23:50.305Z,123.00
2023-02-21T11:24:53.193Z,122.40
2023-02-21T11:26:27.984Z,123.40
2023-02-21T11:27:30.815Z,122.40
2023-02-21T11:28:33.596Z,108.10
2023-02-21T11:30:08.297Z,106.40
2023-02-21T11:31:11.817Z,124.10
2023-02-21T11:32:15.768Z,109.50
2023-02-21T11:33:53.202Z,108.20
2023-02-21T11:34:56.071Z,128.30
2023-02-21T11:35:59.151Z,126.20
2023-02-21T11:37:34.231Z,110.20
2023-02-21T11:38:39.842Z,122.70
2023-02-21T11:39:42.651Z,125.50
2023-02-21T11:41:17.488Z,110.50
2023-02-21T11:42:20.552Z,125.90
2023-02-21T11:43:23.521Z,113.10
2023-02-21T11:44:58.326Z,111.70
2023-02-21T11:46:01.412Z,109.10
2023-02-21T11:47:04.515Z,112.50
2023-02-21T11:48:39.182Z,125.40
2023-02-21T11:49:42.204Z,126.50
2023-02-21T11:50:49.146Z,126.10
2023-02-21T11:52:24.938Z,111.80
2023-02-21T11:53:27.785Z,125.60
2023-02-21T11:54:30.679Z,123.90
2023-02-21T11:56:05.575Z,126.20
2023-02-21T11:57:08.336Z,126.90
2023-02-21T11:58:11.220Z,123.90
2023-02-21T11:59:46.038Z,127.40
2023-02-21T12:00:33.986Z,127.00
2023-02-21T12:01:38.030Z,112.90
2023-02-21T12:02:41.049Z,129.40
2023-02-21T12:04:15.758Z,116.30
2023-02-21T12:05:18.647Z,131.80
2023-02-21T12:06:22.151Z,115.30
2023-02-21T12:07:58.772Z,130.50
2023-02-21T12:09:01.556Z,132.80
2023-02-21T12:10:04.685Z,117.20
2023-02-21T12:11:39.842Z,117.70
2023-02-21T12:12:42.629Z,129.10
2023-02-21T12:13:45.528Z,132.10
2023-02-21T12:15:20.245Z,132.00
2023-02-21T12:16:23.535Z,118.50
2023-02-21T12:17:26.561Z,132.90
2023-02-21T12:19:01.217Z,132.60
2023-02-21T12:20:04.059Z,119.80
2023-02-21T12:21:06.835Z,116.50
2023-02-21T12:22:42.777Z,118.10
2023-02-21T12:23:46.243Z,134.20
2023-02-21T12:24:49.282Z,132.20
2023-02-21T12:26:24.416Z,117.80
2023-02-21T12:27:27.380Z,119.40
2023-02-21T12:28:30.917Z,119.40
2023-02-21T12:30:05.682Z,134.70
2023-02-21T12:31:08.870Z,134.00
2023-02-21T12:32:13.489Z,134.10
2023-02-21T12:33:48.806Z,121.80
2023-02-21T12:34:51.795Z,133.40
2023-02-21T12:35:55.152Z,117.60
2023-02-21T12:37:30.049Z,131.40
2023-02-21T12:38:32.986Z,115.40
2023-02-21T12:39:37.031Z,117.40
2023-02-21T12:41:11.789Z,115.70
2023-02-21T12:42:14.697Z,116.10
2023-02-21T12:43:17.805Z,117.30
2023-02-21T12:44:55.145Z,129.80
2023-02-21T12:45:58.066Z,119.70
2023-02-21T12:47:01.490Z,128.80
2023-02-21T12:48:36.356Z,115.80
2023-02-21T12:49:39.406Z,117.00
2023-02-21T12:50:44.537Z,116.00
2023-02-21T12:52:20.111Z,131.30
2023-02-21T12:53:22.951Z,132.50
2023-02-21T12:54:25.953Z,117.70
2023-02-21T12:56:02.907Z,131.90
2023-02-21T12:57:05.730Z,119.30
2023-02-21T12:58:08.745Z,133.40
2023-02-21T12:59:43.652Z,119.40
2023-02-21T13:00:33.838Z,133.60
2023-02-21T13:01:39.397Z,120.70
2023-02-21T13:02:42.861Z,120.20
2023-02-21T13:04:17.973Z,135.70
2023-02-21T13:05:20.799Z,126.00
2023-02-21T13:06:23.714Z,128.40
2023-02-21T13:08:00.796Z,143.30
2023-02-21T13:09:03.797Z,140.90
2023-02-21T13:10:06.684Z,127.20
2023-02-21T13:11:43.181Z,143.60
2023-02-21T13:12:46.472Z,143.10
2023-02-21T13:13:49.308Z,141.80
2023-02-21T13:15:23.963Z,130.70
2023-02-21T13:16:27.103Z,147.60
2023-02-21T13:17:33.517Z,147.20
2023-02-21T13:19:08.145Z,146.00
2023-02-21T13:20:11.147Z,149.80
2023-02-21T13:21:14.245Z,143.30
2023-02-21T13:22:49.256Z,146.10
2023-02-21T13:23:52.189Z,132.30
2023-02-21T13:24:55.120Z,134.40
2023-02-21T13:26:30.195Z,149.80
2023-02-21T13:27:33.110Z,136.50
2023-02-21T13:28:36.121Z,148.90
2023-02-21T13:30:10.886Z,149.40
2023-02-21T13:31:15.390Z,141.20
2023-02-21T13:32:19.164Z,144.40
2023-02-21T13:33:53.985Z,132.50
2023-02-21T13:34:57.122Z,145.60
2023-02-21T13:36:00.274Z,145.10
2023-02-21T13:37:35.021Z,132.00
2023-02-21T13:38:37.949Z,133.30
2023-02-21T13:39:41.459Z,120.30
2023-02-21T13:41:17.374Z,116.40
2023-02-21T13:42:20.588Z,113.30
2023-02-21T13:43:23.530Z,127.60
2023-02-21T13:44:58.288Z,113.10
2023-02-21T13:46:01.227Z,112.30
2023-02-21T13:47:04.305Z,112.10
2023-02-21T13:48:39.298Z,110.40
2023-02-21T13:49:42.172Z,123.50
2023-02-21T13:50:48.281Z,111.10
2023-02-21T13:52:23.395Z,125.90
2023-02-21T13:53:26.309Z,125.30
2023-02-21T13:54:29.392Z,125.70
2023-02-21T13:56:04.903Z,108.90
2023-02-21T13:57:07.724Z,125.10
2023-02-21T13:58:10.907Z,108.40
2023-02-21T13:59:45.500Z,108.40
2023-02-21T14:00:34.901Z,124.70
2023-02-21T14:01:40.764Z,126.10
2023-02-21T14:02:43.607Z,124.90
2023-02-21T14:04:18.766Z,110.40
2023-02-21T14:05:21.630Z,123.60
2023-02-21T14:06:24.852Z,121.80
2023-02-21T14:07:59.646Z,124.20
2023-02-21T14:09:02.366Z,109.60
2023-02-21T14:10:05.283Z,124.80
2023-02-21T14:11:40.131Z,124.10
2023-02-21T14:12:43.103Z,124.10
2023-02-21T14:13:46.053Z,124.20
2023-02-21T14:15:24.145Z,107.90
2023-02-21T14:16:27.931Z,111.50
2023-02-21T14:17:32.356Z,109.20
2023-02-21T14:19:07.198Z,111.80
2023-02-21T14:20:14.038Z,126.30
2023-02-21T14:21:17.307Z,110.70
2023-02-21T14:22:52.264Z,128.30
2023-02-21T14:23:55.140Z,128.70
2023-02-21T14:24:58.093Z,114.10
2023-02-21T14:26:35.595Z,128.10
2023-02-21T14:27:38.613Z,113.80
2023-02-21T14:28:41.550Z,113.90
2023-02-21T14:30:16.742Z,128.60
2023-02-21T14:31:20.377Z,115.70
2023-02-21T14:32:23.908Z,129.60
2023-02-21T14:33:58.787Z,131.50
2023-02-21T14:35:01.672Z,117.10
2023-02-21T14:36:04.525Z,115.50
2023-02-21T14:37:39.450Z,114.70
2023-02-21T14:38:42.307Z,130.00
2023-02-21T14:39:47.514Z,129.70
2023-02-21T14:41:22.644Z,132.20
2023-02-21T14:42:25.588Z,135.20
2023-02-21T14:43:28.633Z,118.50
2023-02-21T14:45:04.937Z,132.50
2023-02-21T14:46:08.237Z,131.60
2023-02-21T14:47:11.360Z,132.60
2023-02-21T14:48:46.113Z,118.80
2023-02-21T14:49:48.955Z,133.10
2023-02-21T14:50:51.761Z,119.00
2023-02-21T14:52:26.510Z,121.00
2023-02-21T14:53:29.378Z,120.80
2023-02-21T14:54:32.408Z,130.60
2023-02-21T14:56:07.376Z,135.70
2023-02-21T14:57:10.294Z,121.90
2023-02-21T14:58:13.467Z,121.70
2023-02-21T14:59:48.202Z,136.80
2023-02-21T15:00:34.396Z,124.30
2023-02-21T15:01:38.500Z,125.30
2023-02-21T15:02:41.488Z,141.90
2023-02-21T15:04:16.764Z,126.20
2023-02-21T15:05:19.760Z,128.60
2023-02-21T15:06:25.928Z,128.60
2023-02-21T15:08:00.712Z,146.60
2023-02-21T15:09:03.474Z,132.30
2023-02-21T15:10:06.370Z,133.00
2023-02-21T15:11:43.353Z,132.50
2023-02-21T15:12:46.107Z,147.00
2023-02-21T15:13:49.302Z,147.20
2023-02-21T15:15:24.118Z,132.30
2023-02-21T15:16:27.320Z,144.40
2023-02-21T15:17:31.971Z,129.00
2023-02-21T15:19:06.863Z,125.40